Time;durP1;ratioP1;P1;durP2;ratioP2;P2;SDS_P1;SDS_P2;PMS_P1;PMS_P2;Temp;Humidity;BMP_temperature;BMP_pressure;BME280_temperature;BME280_humidity;BME280_pressure;Samples;Min_cycle;Max_cycle;Signal;HPM_P1;HPM_P2
2023/05/19 00:01:12;;;;;;;6.68;2.38;;;;;;;11.01;59.38;98919.94;5031228;28;20037;-78
2023/05/19 00:03:43;;;;;;;5.57;2.58;;;;;;;10.86;59.55;98914.13;5026173;28;20021;-77
2023/05/19 00:06:09;;;;;;;8.35;2.55;;;;;;;10.95;59.22;98921.66;5040055;28;20033;-77
2023/05/19 00:08:36;;;;;;;6.72;3.00;;;;;;;10.88;59.47;98912.84;5008566;28;20026;-77
2023/05/19 00:11:02;;;;;;;5.35;2.42;;;;;;;10.84;59.49;98918.94;5022563;28;20037;-77
2023/05/19 00:13:28;;;;;;;6.97;2.67;;;;;;;10.78;59.32;98904.47;5041280;28;20036;-77
2023/05/19 00:15:53;;;;;;;7.80;2.58;;;;;;;10.74;60.23;98908.69;5046956;28;20041;-77
2023/05/19 00:18:19;;;;;;;7.57;2.90;;;;;;;10.66;60.08;98903.63;5029738;28;20070;-77
2023/05/19 00:20:44;;;;;;;9.23;3.00;;;;;;;10.68;60.34;98915.00;5002928;28;20111;-77
2023/05/19 00:23:10;;;;;;;4.63;2.40;;;;;;;10.74;59.82;98910.56;5029277;28;20028;-77
2023/05/19 00:25:35;;;;;;;6.18;2.95;;;;;;;10.70;60.02;98901.28;5018915;28;20133;-78
2023/05/19 00:28:01;;;;;;;7.85;2.95;;;;;;;10.58;60.30;98895.84;5018139;28;20025;-77
2023/05/19 00:30:30;;;;;;;8.32;3.05;;;;;;;10.63;60.61;98905.94;5065118;28;20040;-77
2023/05/19 00:32:56;;;;;;;6.60;2.45;;;;;;;10.74;60.79;98906.00;5003862;28;20022;-77
2023/05/19 00:35:22;;;;;;;4.97;2.70;;;;;;;10.45;61.18;98908.66;5016306;28;20036;-77
2023/05/19 00:37:47;;;;;;;6.72;2.90;;;;;;;10.63;60.43;98900.56;5019403;28;20515;-77
2023/05/19 00:40:13;;;;;;;8.02;2.55;;;;;;;10.64;60.55;98897.63;5035575;28;20042;-76
2023/05/19 00:42:50;;;;;;;6.50;3.00;;;;;;;10.57;60.59;98896.88;5034851;28;20047;-77
2023/05/19 00:46:06;;;;;;;5.05;2.47;;;;;;;10.47;60.74;98902.00;5063102;28;20036;-77
2023/05/19 00:48:35;;;;;;;6.72;2.78;;;;;;;10.42;61.07;98877.63;5040962;28;20045;-78
2023/05/19 00:51:03;;;;;;;5.10;2.28;;;;;;;10.61;60.10;98886.50;5024956;28;20033;-77
2023/05/19 00:53:53;;;;;;;6.72;2.60;;;;;;;10.69;59.53;98881.59;5008647;28;20079;-77
2023/05/19 00:56:57;;;;;;;6.43;2.75;;;;;;;10.57;60.34;98880.72;5022200;28;20461;-76
2023/05/19 00:59:29;;;;;;;5.00;2.50;;;;;;;10.75;60.75;98883.41;5023912;28;20139;-75
2023/05/19 01:01:54;;;;;;;7.05;2.95;;;;;;;10.57;59.93;98864.56;5028596;28;20033;-76
2023/05/19 01:04:20;;;;;;;6.60;2.83;;;;;;;10.54;60.63;98872.31;5022346;28;20029;-76
2023/05/19 01:06:53;;;;;;;5.13;3.00;;;;;;;10.64;60.36;98864.50;5028041;28;20505;-76
2023/05/19 01:09:20;;;;;;;6.72;2.83;;;;;;;10.59;60.43;98877.84;5047804;28;20402;-77
2023/05/19 01:11:46;;;;;;;6.50;3.05;;;;;;;10.58;60.13;98877.00;5019324;28;20464;-77
2023/05/19 01:14:11;;;;;;;5.65;2.60;;;;;;;10.46;60.76;98872.59;5032525;28;20037;-77
2023/05/19 01:16:52;;;;;;;8.73;2.70;;;;;;;10.29;62.74;98877.81;5031268;28;20047;-76
2023/05/19 01:19:48;;;;;;;7.00;2.88;;;;;;;10.02;63.88;98879.09;5020097;28;20064;-76
2023/05/19 01:22:35;;;;;;;6.32;3.00;;;;;;;10.09;62.64;98875.31;5023017;28;20033;-76
2023/05/19 01:25:30;;;;;;;5.80;3.00;;;;;;;10.01;63.16;98875.59;5043898;28;20041;-77
2023/05/19 01:28:20;;;;;;;6.32;2.95;;;;;;;10.16;62.54;98877.94;5030614;28;20038;-76
2023/05/19 01:30:55;;;;;;;6.03;2.67;;;;;;;10.05;63.05;98865.22;5005591;28;20037;-77
2023/05/19 01:33:23;;;;;;;4.93;2.63;;;;;;;10.10;64.44;98879.66;5022268;28;20052;-77
2023/05/19 01:35:49;;;;;;;5.63;2.80;;;;;;;10.18;62.85;98870.47;5023716;28;20040;-78
2023/05/19 01:38:17;;;;;;;5.05;2.72;;;;;;;9.96;64.01;98880.00;5006898;28;20030;-78
2023/05/19 01:40:44;;;;;;;6.13;3.05;;;;;;;10.00;62.92;98879.34;5027501;28;20021;-78
2023/05/19 01:43:12;;;;;;;7.57;2.72;;;;;;;9.99;63.39;98866.13;5030515;28;20076;-76
2023/05/19 01:45:38;;;;;;;7.97;2.92;;;;;;;10.17;63.99;98874.22;5016296;28;20064;-75
2023/05/19 01:48:04;;;;;;;7.05;2.83;;;;;;;10.00;64.59;98878.50;5035887;28;20532;-76
2023/05/19 01:50:31;;;;;;;5.18;3.05;;;;;;;10.05;64.13;98884.88;5042429;28;20021;-76
2023/05/19 01:52:57;;;;;;;5.85;3.10;;;;;;;10.18;63.14;98881.22;5046043;28;20033;-76
2023/05/19 01:55:23;;;;;;;7.55;3.30;;;;;;;10.04;63.76;98879.69;5042778;28;20515;-76
2023/05/19 01:58:04;;;;;;;7.72;3.30;;;;;;;10.29;63.75;98877.81;5003231;28;20083;-75
2023/05/19 02:00:38;;;;;;;7.38;3.75;;;;;;;10.01;64.18;98883.66;5033439;28;20487;-76
2023/05/19 02:03:06;;;;;;;8.15;3.22;;;;;;;10.20;64.07;98884.50;5038969;28;20059;-75
2023/05/19 02:05:41;;;;;;;6.03;3.33;;;;;;;10.20;63.80;98873.75;5023722;28;20116;-75
2023/05/19 02:08:20;;;;;;;6.63;3.00;;;;;;;9.97;64.86;98869.03;5025683;28;20206;-76
2023/05/19 02:10:55;;;;;;;8.13;3.15;;;;;;;10.11;63.84;98869.69;5033457;28;20030;-75
2023/05/19 02:13:25;;;;;;;4.93;2.80;;;;;;;10.17;64.22;98869.66;5031207;28;20052;-76
2023/05/19 02:15:52;;;;;;;5.30;3.05;;;;;;;9.97;64.78;98868.19;5017445;28;20029;-76
2023/05/19 02:18:19;;;;;;;5.80;3.10;;;;;;;9.82;64.51;98849.75;5049190;28;20454;-76
2023/05/19 02:20:49;;;;;;;6.82;2.80;;;;;;;9.84;64.77;98858.41;5011231;28;20067;-75
2023/05/19 02:23:14;;;;;;;8.93;3.22;;;;;;;9.89;64.44;98845.13;5042883;28;20034;-75
2023/05/19 02:25:40;;;;;;;7.07;3.20;;;;;;;9.89;64.78;98844.28;5048252;28;20056;-75
2023/05/19 02:28:05;;;;;;;6.30;3.15;;;;;;;9.86;63.92;98839.34;5033441;28;20445;-75
2023/05/19 02:30:31;;;;;;;8.25;2.83;;;;;;;9.96;64.26;98861.19;5031443;28;20530;-74
2023/05/19 02:32:59;;;;;;;6.32;3.00;;;;;;;9.86;64.45;98858.19;5048220;28;20064;-76
2023/05/19 02:35:24;;;;;;;5.07;3.00;;;;;;;9.77;64.85;98846.06;5019061;28;20029;-77
2023/05/19 02:37:50;;;;;;;6.95;3.00;;;;;;;10.11;64.80;98865.16;5036763;28;20179;-76
2023/05/19 02:40:17;;;;;;;9.02;3.08;;;;;;;10.06;65.40;98858.78;5033657;28;20475;-76
2023/05/19 02:42:42;;;;;;;7.07;3.60;;;;;;;9.84;67.12;98844.13;5048272;28;20124;-76
2023/05/19 02:45:08;;;;;;;5.13;3.22;;;;;;;9.67;66.83;98858.16;5038339;28;20068;-76
2023/05/19 02:47:34;;;;;;;8.40;3.08;;;;;;;9.76;67.11;98853.31;5032735;28;20083;-77
2023/05/19 02:49:59;;;;;;;7.55;3.72;;;;;;;9.82;67.13;98849.75;5044388;28;20022;-77
2023/05/19 02:52:25;;;;;;;6.40;3.35;;;;;;;9.72;68.57;98844.06;5010633;28;20032;-77
2023/05/19 02:54:51;;;;;;;5.60;3.60;;;;;;;9.86;67.97;98844.72;5004432;28;20031;-77
2023/05/19 02:57:16;;;;;;;7.72;3.83;;;;;;;9.82;67.69;98857.00;5039521;28;20049;-78
2023/05/19 02:59:42;;;;;;;6.68;3.58;;;;;;;9.66;66.86;98847.66;5027545;28;20084;-76
2023/05/19 03:02:07;;;;;;;5.15;2.92;;;;;;;9.81;65.61;98847.25;5026340;28;20418;-76
2023/05/19 03:04:40;;;;;;;5.93;3.08;;;;;;;9.94;66.94;98850.63;5036717;28;20071;-77
2023/05/19 03:07:05;;;;;;;6.63;3.30;;;;;;;9.94;66.49;98852.50;5018696;28;20034;-77
2023/05/19 03:09:31;;;;;;;5.78;3.40;;;;;;;9.94;66.66;98857.91;5018238;28;20072;-77
2023/05/19 03:12:02;;;;;;;7.50;3.58;;;;;;;9.90;66.66;98862.88;5043171;28;20043;-77
2023/05/19 03:14:28;;;;;;;5.40;3.13;;;;;;;9.96;66.47;98851.25;5024513;28;20036;-76
2023/05/19 03:16:54;;;;;;;6.93;3.78;;;;;;;9.98;67.36;98845.63;5020247;28;20031;-77
2023/05/19 03:19:20;;;;;;;7.65;3.90;;;;;;;9.94;68.13;98863.28;5009882;28;20091;-78
2023/05/19 03:21:46;;;;;;;6.78;3.67;;;;;;;9.86;68.00;98850.09;5027040;28;20025;-77
2023/05/19 03:24:12;;;;;;;6.80;4.03;;;;;;;9.82;69.45;98859.69;5040606;28;20133;-78
2023/05/19 03:26:37;;;;;;;6.72;4.10;;;;;;;9.79;69.47;98855.56;5040414;28;20120;-78
2023/05/19 03:29:03;;;;;;;7.15;4.28;;;;;;;9.88;68.75;98858.78;5029821;28;20119;-78
2023/05/19 03:31:31;;;;;;;6.20;3.92;;;;;;;9.70;68.70;98851.53;5030828;28;20052;-78
2023/05/19 03:33:57;;;;;;;6.18;3.85;;;;;;;9.80;68.02;98851.00;5041018;28;20033;-77
2023/05/19 03:36:23;;;;;;;6.63;3.55;;;;;;;9.73;68.74;98862.66;5023579;28;20442;-78
2023/05/19 03:38:48;;;;;;;8.07;3.28;;;;;;;9.79;66.85;98850.19;5029366;28;20037;-78
2023/05/19 03:41:14;;;;;;;6.03;3.70;;;;;;;9.71;65.28;98850.47;5030419;28;20025;-77
2023/05/19 03:43:39;;;;;;;7.32;3.30;;;;;;;9.86;64.14;98850.09;5042919;28;20048;-78
2023/05/19 03:46:06;;;;;;;6.97;2.83;;;;;;;9.92;63.86;98846.53;5008678;28;20052;-76
2023/05/19 03:48:50;;;;;;;6.20;2.70;;;;;;;10.05;62.84;98849.06;5043504;28;20052;-77
2023/05/19 03:51:43;;;;;;;7.95;3.13;;;;;;;10.00;63.53;98846.22;5005021;28;20515;-78
2023/05/19 03:54:22;;;;;;;5.65;3.20;;;;;;;9.99;63.81;98853.47;5006149;28;20056;-77
2023/05/19 03:56:49;;;;;;;6.50;3.50;;;;;;;9.89;63.46;98855.06;5044602;28;20037;-77
2023/05/19 03:59:15;;;;;;;6.53;2.90;;;;;;;9.96;63.71;98853.94;5030217;28;20017;-77
2023/05/19 04:01:40;;;;;;;5.60;3.10;;;;;;;9.98;63.15;98864.47;5009034;28;20125;-76
2023/05/19 04:04:06;;;;;;;6.95;2.80;;;;;;;10.17;62.88;98863.47;5022905;28;20033;-77
2023/05/19 04:06:32;;;;;;;6.28;3.13;;;;;;;10.02;63.22;98866.47;5044790;28;20498;-77
2023/05/19 04:08:58;;;;;;;7.28;3.10;;;;;;;10.22;62.03;98860.91;5048148;28;20056;-76
2023/05/19 04:11:23;;;;;;;6.70;3.03;;;;;;;9.98;63.22;98869.84;5028322;28;20068;-77
2023/05/19 04:13:50;;;;;;;8.43;3.10;;;;;;;10.19;63.14;98866.75;5049530;28;20066;-77
2023/05/19 04:16:15;;;;;;;6.22;3.25;;;;;;;10.10;62.92;98881.50;5028845;28;20041;-76
2023/05/19 04:18:41;;;;;;;7.78;3.50;;;;;;;10.07;63.38;98876.56;5051359;28;20506;-76
2023/05/19 04:21:07;;;;;;;6.43;2.85;;;;;;;10.33;63.95;98876.31;5036550;28;20038;-75
2023/05/19 04:23:32;;;;;;;5.82;3.17;;;;;;;10.11;63.38;98867.00;5018714;28;20027;-76
2023/05/19 04:26:00;;;;;;;6.65;2.97;;;;;;;10.14;63.37;98871.97;5044587;28;20124;-76
2023/05/19 04:28:25;;;;;;;7.32;3.05;;;;;;;10.12;63.44;98872.19;5029596;28;20032;-75
2023/05/19 04:30:51;;;;;;;4.47;2.72;;;;;;;10.22;62.79;98867.09;5024884;28;20041;-75
2023/05/19 04:33:16;;;;;;;3.92;3.00;;;;;;;10.12;63.30;98871.38;5020651;28;20117;-75
2023/05/19 04:35:42;;;;;;;7.35;3.00;;;;;;;10.55;61.28;98872.06;5023613;28;20036;-76
2023/05/19 04:38:10;;;;;;;6.35;2.90;;;;;;;10.63;61.75;98874.44;5022838;28;20021;-76
2023/05/19 04:40:39;;;;;;;7.50;3.05;;;;;;;10.47;63.11;98869.69;5027786;28;20039;-76
2023/05/19 04:43:06;;;;;;;7.07;3.03;;;;;;;10.53;62.63;98868.78;5045462;28;20021;-77
2023/05/19 04:45:32;;;;;;;5.65;3.22;;;;;;;10.31;62.51;98876.53;5025140;28;20052;-77
2023/05/19 04:47:59;;;;;;;8.60;3.00;;;;;;;10.59;62.39;98872.44;5020177;28;20091;-75
2023/05/19 04:50:25;;;;;;;6.70;3.20;;;;;;;10.60;63.06;98877.59;5025174;28;20045;-75
2023/05/19 04:52:51;;;;;;;6.32;2.90;;;;;;;10.29;63.09;98884.00;5022574;28;20021;-77
2023/05/19 04:55:16;;;;;;;6.38;3.08;;;;;;;10.58;63.40;98885.09;5026252;28;20048;-78
2023/05/19 04:57:42;;;;;;;7.22;3.17;;;;;;;10.68;62.40;98877.28;5029063;28;20028;-76
2023/05/19 05:00:12;;;;;;;6.20;3.38;;;;;;;10.89;61.91;98879.47;5024886;28;20029;-76
2023/05/19 05:02:45;;;;;;;5.47;3.08;;;;;;;10.98;61.71;98879.97;5034486;28;20026;-76
2023/05/19 05:05:11;;;;;;;6.97;2.67;;;;;;;11.24;60.80;98881.44;5009955;28;20107;-76
2023/05/19 05:07:36;;;;;;;8.05;3.20;;;;;;;11.08;60.85;98875.63;5022083;28;20052;-76
2023/05/19 05:10:02;;;;;;;8.52;3.28;;;;;;;10.85;62.14;98877.47;5021606;28;20033;-77
2023/05/19 05:12:30;;;;;;;6.00;3.28;;;;;;;11.11;62.12;98872.50;5012653;28;20448;-77
2023/05/19 05:14:55;;;;;;;9.50;3.30;;;;;;;11.38;61.43;98872.91;5026073;28;20033;-77
2023/05/19 05:17:21;;;;;;;5.85;3.10;;;;;;;11.41;61.10;98877.00;5018854;28;20067;-75
2023/05/19 05:19:47;;;;;;;7.80;3.28;;;;;;;11.35;61.31;98861.75;5016785;28;20037;-75
2023/05/19 05:22:13;;;;;;;8.02;3.42;;;;;;;11.40;61.32;98868.09;5046600;28;20021;-76
2023/05/19 05:24:39;;;;;;;9.43;3.10;;;;;;;11.39;61.14;98860.25;5009144;28;20035;-76
2023/05/19 05:27:06;;;;;;;8.95;3.70;;;;;;;11.50;61.34;98864.81;5021407;28;20029;-75
2023/05/19 05:29:32;;;;;;;8.32;3.53;;;;;;;11.67;61.96;98866.59;5024364;28;20167;-75
2023/05/19 05:31:57;;;;;;;8.10;3.60;;;;;;;11.67;61.44;98861.22;5032188;28;20091;-76
2023/05/19 05:34:23;;;;;;;7.80;3.42;;;;;;;11.91;60.93;98864.72;5023986;28;20479;-76
2023/05/19 05:36:48;;;;;;;4.82;3.03;;;;;;;11.67;60.15;98865.75;5044822;28;20094;-76
2023/05/19 05:39:14;;;;;;;6.43;3.33;;;;;;;11.79;59.47;98859.31;5025279;28;20372;-77
2023/05/19 05:41:41;;;;;;;8.13;3.30;;;;;;;12.03;60.03;98854.72;5005308;28;20052;-76
2023/05/19 05:44:09;;;;;;;7.63;3.22;;;;;;;12.00;61.38;98866.00;5024127;28;20033;-74
2023/05/19 05:46:37;;;;;;;6.35;3.25;;;;;;;11.87;59.95;98847.34;5043785;28;20036;-73
2023/05/19 05:49:03;;;;;;;7.70;2.95;;;;;;;11.63;60.60;98864.56;5025087;28;20068;-76
2023/05/19 05:51:28;;;;;;;6.35;3.22;;;;;;;11.81;60.79;98869.88;5021545;28;20398;-76
2023/05/19 05:53:54;;;;;;;9.05;3.20;;;;;;;11.83;59.08;98865.09;5024129;28;20029;-77
2023/05/19 05:56:25;;;;;;;6.88;2.97;;;;;;;11.95;59.13;98863.19;5044545;28;20060;-76
2023/05/19 05:58:52;;;;;;;7.15;2.83;;;;;;;11.91;59.44;98853.91;5026522;28;20170;-76
2023/05/19 06:01:19;;;;;;;5.47;2.92;;;;;;;11.88;59.42;98861.69;5021169;28;20116;-77
2023/05/19 06:03:45;;;;;;;5.85;3.20;;;;;;;11.77;61.08;98857.91;5006486;28;20530;-77
2023/05/19 06:06:13;;;;;;;6.40;2.88;;;;;;;11.70;60.30;98857.22;5028081;28;20575;-76
2023/05/19 06:08:39;;;;;;;7.78;3.30;;;;;;;11.92;59.62;98862.84;5043138;28;20061;-77
2023/05/19 06:11:07;;;;;;;7.53;3.28;;;;;;;11.88;59.88;98862.47;5028302;28;20025;-77
2023/05/19 06:13:37;;;;;;;8.85;3.42;;;;;;;11.74;59.89;98861.06;5027172;28;20029;-77
2023/05/19 06:16:05;;;;;;;7.30;2.90;;;;;;;11.97;59.91;98865.66;5005959;28;20090;-77
2023/05/19 06:18:37;;;;;;;7.50;3.40;;;;;;;11.85;58.04;98865.66;5021668;28;20116;-76
2023/05/19 06:21:02;;;;;;;5.93;3.10;;;;;;;12.05;59.40;98868.81;5009993;28;20063;-77
2023/05/19 06:23:29;;;;;;;5.82;3.05;;;;;;;12.09;59.92;98869.16;5027229;28;20110;-77
2023/05/19 06:25:55;;;;;;;5.93;3.22;;;;;;;11.98;60.34;98857.31;5005800;28;20083;-77
2023/05/19 06:28:21;;;;;;;8.00;2.83;;;;;;;12.04;59.11;98867.16;5020770;28;20487;-77
2023/05/19 06:30:47;;;;;;;5.45;3.30;;;;;;;12.22;59.02;98864.31;5009730;28;20509;-77
2023/05/19 06:33:22;;;;;;;6.20;3.65;;;;;;;12.10;59.41;98866.22;5000183;28;20053;-77
2023/05/19 06:35:47;;;;;;;8.75;3.38;;;;;;;12.19;60.09;98861.25;5022878;28;20033;-77
2023/05/19 06:38:13;;;;;;;5.22;3.05;;;;;;;12.42;58.89;98869.31;5020558;28;20053;-77
2023/05/19 06:40:39;;;;;;;6.32;3.13;;;;;;;12.67;58.56;98855.47;5042029;28;20056;-77
2023/05/19 06:43:05;;;;;;;6.28;2.92;;;;;;;12.60;59.24;98849.41;5028843;28;20025;-77
2023/05/19 06:45:51;;;;;;;7.35;2.95;;;;;;;12.10;59.06;98863.53;5025755;28;20790;-77
2023/05/19 06:48:17;;;;;;;7.57;3.15;;;;;;;12.12;58.86;98860.56;5027643;28;20042;-77
2023/05/19 06:50:42;;;;;;;7.97;3.70;;;;;;;12.24;56.82;98864.91;5041129;28;20607;-77
2023/05/19 06:53:08;;;;;;;7.78;3.05;;;;;;;12.38;57.52;98858.16;5036669;28;20518;-77
2023/05/19 06:55:34;;;;;;;8.73;3.55;;;;;;;12.49;58.50;98859.19;5003167;28;20033;-74
2023/05/19 06:58:00;;;;;;;5.28;3.22;;;;;;;12.68;57.66;98852.53;5008454;28;20172;-77
2023/05/19 07:00:25;;;;;;;11.07;3.20;;;;;;;12.66;57.24;98859.22;5017996;28;20033;-77
2023/05/19 07:02:52;;;;;;;7.30;3.22;;;;;;;12.62;57.60;98866.19;5031275;28;20037;-77
2023/05/19 07:05:17;;;;;;;7.88;3.20;;;;;;;12.57;57.30;98850.69;5039895;28;20033;-77
2023/05/19 07:07:48;;;;;;;5.68;3.20;;;;;;;12.56;57.67;98859.03;5048528;28;20026;-76
2023/05/19 07:10:17;;;;;;;5.90;3.05;;;;;;;12.77;56.58;98855.66;5022088;28;20499;-77
2023/05/19 07:12:43;;;;;;;10.13;3.22;;;;;;;12.99;56.17;98843.09;5022882;28;20386;-77
2023/05/19 07:15:09;;;;;;;9.48;3.42;;;;;;;13.12;56.04;98842.81;5024694;28;20035;-74
2023/05/19 07:17:36;;;;;;;9.93;3.03;;;;;;;12.87;56.16;98851.28;5047271;28;20063;-77
2023/05/19 07:20:02;;;;;;;6.63;3.42;;;;;;;13.32;55.64;98840.44;5013606;28;20058;-77
2023/05/19 07:22:28;;;;;;;7.50;3.40;;;;;;;13.45;55.04;98847.41;5024075;28;20103;-76
2023/05/19 07:24:55;;;;;;;8.77;3.33;;;;;;;13.38;55.70;98836.75;5023637;28;20060;-76
2023/05/19 07:27:21;;;;;;;9.43;3.42;;;;;;;13.62;55.45;98830.09;5017603;28;20022;-77
2023/05/19 07:29:47;;;;;;;10.98;4.35;;;;;;;13.86;55.09;98823.38;5013226;28;20372;-77
2023/05/19 07:32:12;;;;;;;7.20;3.33;;;;;;;13.96;54.41;98824.59;5040474;28;20091;-77
2023/05/19 07:34:39;;;;;;;8.00;3.28;;;;;;;14.38;55.06;98820.28;5040733;28;20037;-76
2023/05/19 07:37:04;;;;;;;5.65;2.90;;;;;;;14.80;53.18;98829.41;5046889;28;20467;-76
2023/05/19 07:39:31;;;;;;;4.80;2.97;;;;;;;15.07;52.75;98824.00;5046331;28;20037;-76
2023/05/19 07:41:56;;;;;;;6.45;3.10;;;;;;;15.20;52.51;98829.81;5023682;28;20040;-77
2023/05/19 07:44:22;;;;;;;4.78;3.05;;;;;;;15.08;51.01;98826.44;5041526;28;20072;-77
2023/05/19 07:46:47;;;;;;;6.85;2.90;;;;;;;15.85;50.63;98825.94;5046766;28;20032;-77
2023/05/19 07:49:12;;;;;;;4.47;2.83;;;;;;;15.30;50.44;98829.06;5034662;28;20502;-77
2023/05/19 07:51:38;;;;;;;4.75;3.25;;;;;;;14.92;52.23;98826.56;5022389;28;20171;-77
2023/05/19 07:54:03;;;;;;;6.90;3.13;;;;;;;14.46;52.50;98823.38;5042126;28;20399;-77
2023/05/19 07:56:29;;;;;;;7.40;3.08;;;;;;;14.62;52.85;98827.06;5046493;28;20032;-76
2023/05/19 07:58:54;;;;;;;6.78;3.03;;;;;;;14.65;52.22;98821.16;5028856;28;20048;-77
2023/05/19 08:01:20;;;;;;;5.63;2.70;;;;;;;15.12;51.06;98816.69;5039776;28;20037;-77
2023/05/19 08:03:45;;;;;;;5.35;2.80;;;;;;;15.19;49.82;98811.09;5040990;28;20034;-77
2023/05/19 08:06:10;;;;;;;6.20;2.95;;;;;;;15.74;50.23;98807.97;5030008;28;20491;-76
2023/05/19 08:08:36;;;;;;;4.10;2.72;;;;;;;15.98;49.84;98803.75;5028103;28;20040;-77
2023/05/19 08:11:05;;;;;;;6.60;3.22;;;;;;;15.73;50.57;98811.75;5046752;28;20155;-77
2023/05/19 08:13:30;;;;;;;5.72;2.72;;;;;;;15.55;49.11;98804.03;5032816;28;20041;-77
2023/05/19 08:15:58;;;;;;;5.85;2.78;;;;;;;15.37;50.31;98809.84;5038663;28;20029;-77
2023/05/19 08:18:27;;;;;;;7.72;2.75;;;;;;;15.18;49.48;98810.25;5040301;28;20037;-77
2023/05/19 08:20:52;;;;;;;5.78;2.70;;;;;;;15.05;50.52;98801.72;5046030;28;20079;-76
2023/05/19 08:23:17;;;;;;;9.65;3.00;;;;;;;15.39;48.81;98799.53;5016043;28;20112;-77
2023/05/19 08:25:43;;;;;;;7.32;2.50;;;;;;;15.58;49.64;98798.09;5041081;28;20103;-76
2023/05/19 08:28:08;;;;;;;8.15;2.58;;;;;;;15.43;49.55;98796.03;5028920;28;20036;-77
2023/05/19 08:30:34;;;;;;;6.45;2.45;;;;;;;15.61;49.56;98789.44;4999969;28;20030;-77
2023/05/19 08:33:00;;;;;;;6.18;2.63;;;;;;;15.87;48.60;98785.75;5045180;28;20036;-76
2023/05/19 08:35:25;;;;;;;6.32;2.70;;;;;;;15.53;47.87;98779.03;5051968;22;20041;-77
2023/05/19 08:37:50;;;;;;;4.18;2.08;;;;;;;15.87;48.57;98774.88;4992062;28;20042;-77
2023/05/19 08:40:17;;;;;;;3.58;2.45;;;;;;;15.87;49.28;98772.16;4998972;28;20022;-76
2023/05/19 08:42:43;;;;;;;4.75;2.30;;;;;;;16.33;48.02;98774.00;5000420;28;20030;-77
2023/05/19 08:45:09;;;;;;;5.93;2.78;;;;;;;16.27;47.32;98769.63;4989709;28;20041;-77
2023/05/19 08:47:35;;;;;;;4.00;2.50;;;;;;;16.46;46.05;98778.94;5005790;28;20038;-76
2023/05/19 08:50:09;;;;;;;5.55;2.42;;;;;;;16.44;45.42;98767.50;4983328;28;20030;-76
2023/05/19 08:53:00;;;;;;;6.70;2.47;;;;;;;16.39;47.13;98772.09;4999374;28;20169;-77
2023/05/19 08:55:44;;;;;;;4.57;2.50;;;;;;;16.73;47.81;98772.50;5002411;28;20042;-76
2023/05/19 08:58:10;;;;;;;5.80;2.30;;;;;;;16.01;48.37;98767.88;5006287;28;20078;-76
2023/05/19 09:00:36;;;;;;;4.55;2.28;;;;;;;16.44;47.62;98764.78;4960444;28;20488;-76
2023/05/19 09:03:01;;;;;;;4.55;2.42;;;;;;;16.68;46.13;98764.31;5005546;28;20041;-76
2023/05/19 09:05:27;;;;;;;5.93;2.60;;;;;;;17.14;46.41;98757.81;4989061;28;20045;-76
2023/05/19 09:07:52;;;;;;;4.18;2.13;;;;;;;17.53;44.65;98767.06;4999057;28;20506;-77
2023/05/19 09:10:17;;;;;;;4.75;2.70;;;;;;;17.35;44.74;98759.44;5016027;28;20030;-76
2023/05/19 09:12:45;;;;;;;5.18;2.10;;;;;;;17.25;44.63;98754.81;5006807;28;20080;-76
2023/05/19 09:15:11;;;;;;;5.10;2.47;;;;;;;17.19;44.44;98749.66;5007656;28;20026;-76
2023/05/19 09:17:37;;;;;;;4.43;2.20;;;;;;;17.07;45.26;98749.09;5012489;28;20034;-77
2023/05/19 09:20:10;;;;;;;4.55;2.22;;;;;;;16.49;48.05;98750.41;4999967;28;20357;-76
2023/05/19 09:22:46;;;;;;;4.18;2.63;;;;;;;16.05;45.90;98741.84;4983942;28;20470;-77
2023/05/19 09:25:23;;;;;;;4.63;2.28;;;;;;;16.85;47.01;98737.69;4999428;28;20049;-77
2023/05/19 09:27:49;;;;;;;5.57;2.67;;;;;;;17.36;47.50;98733.84;5002224;28;20493;-77
2023/05/19 09:30:15;;;;;;;4.93;2.40;;;;;;;16.93;48.49;98731.69;4992703;28;20026;-75
2023/05/19 09:32:41;;;;;;;5.38;2.40;;;;;;;16.95;48.08;98738.50;4992439;28;20069;-75
2023/05/19 09:35:07;;;;;;;2.70;2.13;;;;;;;17.14;44.90;98727.88;5005283;28;20022;-77
2023/05/19 09:37:32;;;;;;;5.97;2.50;;;;;;;16.58;47.16;98725.16;5003160;28;20132;-76
2023/05/19 09:39:58;;;;;;;4.20;2.15;;;;;;;17.05;46.08;98734.97;4998629;28;20112;-77
2023/05/19 09:42:25;;;;;;;4.78;2.20;;;;;;;16.86;44.13;98736.59;5003138;28;20476;-77
2023/05/19 09:44:58;;;;;;;4.13;2.35;;;;;;;17.32;43.19;98721.88;5004936;28;20101;-77
2023/05/19 09:47:23;;;;;;;6.60;2.50;;;;;;;17.41;42.48;98725.66;4970126;28;20044;-77
2023/05/19 09:49:50;;;;;;;6.03;2.60;;;;;;;17.17;43.50;98725.44;4982010;28;20029;-77
2023/05/19 09:52:17;;;;;;;2.95;1.90;;;;;;;17.57;43.37;98721.03;4985275;28;20449;-77
2023/05/19 09:54:42;;;;;;;3.60;2.20;;;;;;;17.73;42.32;98723.44;4988480;28;20058;-77
2023/05/19 09:57:07;;;;;;;4.30;2.50;;;;;;;17.56;42.83;98717.50;4975748;28;20081;-76
2023/05/19 09:59:33;;;;;;;2.92;2.28;;;;;;;17.62;42.47;98718.31;5005223;28;20042;-77
2023/05/19 10:01:59;;;;;;;10.18;2.90;;;;;;;17.71;43.09;98722.88;4975820;28;20038;-77
2023/05/19 10:04:27;;;;;;;4.18;2.28;;;;;;;17.87;40.92;98719.03;5004882;28;20033;-77
2023/05/19 10:06:53;;;;;;;4.57;1.90;;;;;;;18.11;41.28;98715.66;4986762;28;20129;-77
2023/05/19 10:09:23;;;;;;;2.22;1.58;;;;;;;17.77;42.23;98719.06;5011901;28;20435;-77
2023/05/19 10:11:54;;;;;;;3.38;2.05;;;;;;;18.40;42.36;98711.13;4983222;28;20049;-77
2023/05/19 10:14:24;;;;;;;4.75;2.03;;;;;;;17.83;42.61;98720.66;4981535;28;20070;-77
2023/05/19 10:16:50;;;;;;;4.72;2.10;;;;;;;18.12;42.14;98714.53;4994914;28;20041;-77
2023/05/19 10:19:22;;;;;;;2.88;2.03;;;;;;;18.21;41.71;98713.69;4985163;28;20050;-77
2023/05/19 10:21:48;;;;;;;3.85;1.80;;;;;;;18.68;39.81;98707.69;4998955;28;20034;-77
2023/05/19 10:24:13;;;;;;;5.43;1.80;;;;;;;19.26;39.16;98692.16;4998933;28;20026;-77
2023/05/19 10:26:43;;;;;;;2.83;2.03;;;;;;;19.87;36.67;98692.34;4963619;28;20133;-77
2023/05/19 10:29:09;;;;;;;2.72;1.90;;;;;;;19.00;39.44;98699.78;5003334;28;20074;-77
2023/05/19 10:31:35;;;;;;;5.45;2.30;;;;;;;19.20;40.95;98694.16;5006273;28;20446;-77
2023/05/19 10:34:20;;;;;;;3.35;2.00;;;;;;;19.50;38.54;98692.22;5002611;28;20018;-77
2023/05/19 10:37:10;;;;;;;3.33;1.75;;;;;;;19.12;38.91;98697.50;5004564;28;20045;-77
2023/05/19 10:39:38;;;;;;;2.70;1.90;;;;;;;19.44;38.45;98687.94;4967540;28;20053;-76
2023/05/19 10:42:15;;;;;;;2.50;1.80;;;;;;;19.17;37.63;98689.25;4999020;28;20034;-77
2023/05/19 10:45:12;;;;;;;6.85;2.28;;;;;;;19.50;38.02;98681.28;4997451;28;20468;-77
2023/05/19 10:47:40;;;;;;;3.45;1.80;;;;;;;19.32;37.32;98680.09;5013230;28;20041;-77
2023/05/19 10:50:06;;;;;;;3.47;2.22;;;;;;;18.92;39.10;98684.03;4970187;28;20035;-77
2023/05/19 10:52:36;;;;;;;2.38;1.73;;;;;;;19.53;37.22;98669.78;5000096;28;20128;-77
2023/05/19 10:55:01;;;;;;;3.40;2.15;;;;;;;19.43;39.10;98664.44;4980186;28;20498;-77
2023/05/19 10:57:27;;;;;;;2.65;1.80;;;;;;;18.34;37.94;98665.91;4997858;28;20038;-77
2023/05/19 10:59:54;;;;;;;4.45;2.17;;;;;;;18.43;37.97;98653.28;4983952;28;20641;-77
2023/05/19 11:02:42;;;;;;;3.40;1.80;;;;;;;18.14;39.31;98668.72;4982530;28;20042;-77
2023/05/19 11:05:16;;;;;;;3.53;1.92;;;;;;;18.47;39.19;98662.56;4985561;28;20037;-77
2023/05/19 11:08:11;;;;;;;3.95;2.00;;;;;;;18.35;37.76;98668.34;4986354;28;20178;-77
2023/05/19 11:10:37;;;;;;;7.43;2.40;;;;;;;18.40;38.97;98660.13;4996727;28;20050;-77
2023/05/19 11:13:03;;;;;;;4.68;1.77;;;;;;;18.56;38.24;98655.38;4983037;28;20018;-76
2023/05/19 11:15:33;;;;;;;5.50;1.85;;;;;;;18.61;38.92;98660.81;4995754;28;20474;-77
2023/05/19 11:18:00;;;;;;;2.83;1.90;;;;;;;18.36;39.30;98660.97;4983640;28;20037;-77
2023/05/19 11:20:27;;;;;;;4.45;2.10;;;;;;;18.19;39.91;98646.91;4994370;28;20038;-77
2023/05/19 11:23:02;;;;;;;4.95;2.00;;;;;;;18.51;37.57;98655.41;5001666;28;20022;-77
2023/05/19 11:25:50;;;;;;;3.67;2.15;;;;;;;18.34;40.04;98652.25;5004179;28;20084;-77
2023/05/19 11:28:24;;;;;;;3.92;1.90;;;;;;;18.92;37.66;98651.28;4991142;28;20035;-77
2023/05/19 11:30:50;;;;;;;2.10;1.90;;;;;;;19.02;37.16;98637.50;4970692;28;20069;-77
2023/05/19 11:33:18;;;;;;;4.28;2.10;;;;;;;18.97;39.28;98639.50;5009121;28;20109;-76
2023/05/19 11:35:49;;;;;;;5.50;2.20;;;;;;;19.37;38.14;98643.75;4982650;28;20451;-76
2023/05/19 11:38:15;;;;;;;3.88;1.88;;;;;;;18.94;37.82;98649.06;4998396;28;20066;-77
2023/05/19 11:40:42;;;;;;;3.45;1.67;;;;;;;18.87;37.64;98645.84;5002067;28;20026;-76